Tustin, Michigan
Current Conditions -  °F | °C
As of 2:15 AM on Monday 22 Dec 2014 (Local Time) from KCAD Reporting Station
Haze Haze  
Wind Chill: 20°   Ceiling: 12000
Heat Index: 28°   Visibility: 5mi
Dew Point: 25°   Wind: 8mph
Humidity: 89%   Direction: 150°SSE
Pressure: 30.03"   Gusts: NA
Location:  44.1°N, 85.46°W
Report Text: KCAD 220715Z AUTO 15007KT 5SM BR SCT009 SCT075 BKN120 M02/M03 A3003 RMK AO2 T10221038
Loading
Personal Weather Stations






























Interactive Weather Map New forecast layout! Learn more

10-Day Weather Forecast

Advertisements
Track Severe Weather on mobile